Terminal Aerodrome Forecast
Issued by NWS Quad Cities IA IL

Home | Current Version | Previous Version | Text Only | Print | Product List | Glossary On
Versions: 1 2 3 4 5 6 7 8 9 10 11 12 13 14 15
130
FTUS43 KDVN 210218 AAA
TAFDBQ
TAF AMD
KDBQ 210218Z 2102/2124 02006KT P6SM BKN200
     FM211500 35012KT P6SM BKN120=

USA.gov is the U.S. government's official web portal to all federal, state and local government web resources and services.